Terminal Aerodrome Forecast
Issued by NWS

Home | Current Version | Previous Version | Text Only | Print | Product List | Glossary On
Versions: 1 2 3 4 5 6 7 8 9 10 11 12 13 14 15 16 17 18 19 20 21 22 23 24 25 26
000
FTUS41 KGYX 180916 AAB
TAFHIE
TAF AMD
KHIE 180916Z 1809/1906 VRB03KT 2SM -SN BR BKN012 OVC025
     FM181400 29003KT 5SM -SHSN OVC020
     FM181800 29004KT P6SM -SHSN OVC025
     FM182300 28003KT P6SM OVC050=

USA.gov is the U.S. government's official web portal to all federal, state and local government web resources and services.